Pagrindinis puslapis
METAR-TAF:

METAR-TAF

Oro uostai :

Kalabrijos Redžas, Italija

platuma: 38-04N, ilguma: 015-39E, Aukštis: 11 m

Dabartinis oras

Ataskaita buvo paskelbta 44 minutes, ne 10:50 UTC
Vėjas 8 kt iš Pietų/Pietvakarių, svyruoja nuo Pietų ir Vakarų/Pietvakarių
Temperatūra 27°C
Drėgmė 51%
Slėgis 1022 hPa
Matomumas 10 km arba daugiau
Mažai debesys ne aukštis 4000 ft

METAR: LICR 211050Z 20008KT 170V250 9999 FEW040 27/16 Q1022

Laikas: 13:34 (11:34 UTC)

Prognozė

Ataskaita buvo paskelbta 6 valandos ir 34 minutes, ne 05:00 UTC
Prognozė galioja nuo 21 metu 06 UTC su 22 metu 06 UTC
Vėjas 12 kt iš Pietų
Matomumas 10 km arba daugiau
Išsisklaidę debesys ne aukštis 3000 ft

TAF: LICR 210500Z 2106/2206 18012KT 9999 SCT030

Orai ataskaitas ir orų prognozės (METAR, TAF).

turimą stotys yra geltonos ir raudonos taškus žemėlapyje.

Perkelti pele per norėdami pamatyti stoties vardą.

Tada spustelėkite, norėdami matyti oro stebėjimo ir prognozės.

Norėdami pakeisti žemėlapį: spustelėkite ant žalios mygtukų su juodo kryžiaus žemyn,; žalią mygtuką su brūkšneliu, jei norite nutolinti; arba žalių rodyklių gretimoms žemėlapius.


METAR-TAF: